Pagrindinis puslapis
METAR-TAF:

METAR-TAF

Oro uostai :

Manta, Ekvadoras

platuma: 00-57S, ilguma: 080-41W, Aukštis: 13 m

Dabartinis oras

Ataskaita buvo paskelbta 28 minutes, ne 23:00 UTC
Vėjas 8 kt iš Vakarų
Temperatūra 24°C
Drėgmė 83%
Slėgis 1010 hPa
Matomumas 10 km arba daugiau
Mažai debesys ne aukštis 2300 ft

METAR: SEMT 282300Z 27008KT 9999 FEW023 24/21 Q1010 RMK A2984

Laikas: 18:28 (23:28 UTC)

Prognozė

Ataskaita buvo paskelbta 7 valandos ir 23 minutes, ne 16:05 UTC
Prognozė galioja nuo 28 metu 18 UTC su 29 metu 18 UTC
Vėjas 8 kt iš Vakarų/Pietvakarių
Matomumas 10 km arba daugiau
Išsisklaidę debesys ne aukštis 2300 ft
Išsisklaidę debesys ne aukštis 9000 ft
Tapsmas
nuo 29 metu 04 UTC su 29 metu 06 UTC
Su prošvaistėmis ne aukštis 2000 ft
Tapsmas
nuo 29 metu 12 UTC su 29 metu 13 UTC
Išsisklaidę debesys ne aukštis 2300 ft
Išsisklaidę debesys ne aukštis 10000 ft

TAF: SEMT 281605Z 2818/2918 25008KT 9999 SCT023 SCT090 BECMG 2904/2906 BKN020 BECMG 2912/2913 SCT023 SCT100 TX28/2820Z TN22/2910Z

Orai ataskaitas ir orų prognozės (METAR, TAF).

turimą stotys yra geltonos ir raudonos taškus žemėlapyje.

Perkelti pele per norėdami pamatyti stoties vardą.

Tada spustelėkite, norėdami matyti oro stebėjimo ir prognozės.

Norėdami pakeisti žemėlapį: spustelėkite ant žalios mygtukų su juodo kryžiaus žemyn,; žalią mygtuką su brūkšneliu, jei norite nutolinti; arba žalių rodyklių gretimoms žemėlapius.


METAR-TAF: